Terminal Aerodrome Forecast
Issued by NWS

Home | Current Version | Previous Version | Graphics & Text | Print | Product List | Glossary On
Versions: 1 2 3 4 5 6 7 8 9 10 11 12 13 14 15 16 17 18 19 20 21
000
FTUS43 KGRB 200838 AAA
TAFAUW
TAF AMD
KAUW 200838Z 2009/2106 VRB03KT P6SM SCT002 SCT250
      TEMPO 2009/2013 BKN002
     FM201500 27006KT P6SM BKN200=

USA.gov is the U.S. government's official web portal to all federal, state and local government web resources and services.